Jackson, Missouri
Current Conditions -  °F | °C
As of 3:53 PM on Thursday 27 Nov 2014 (Local Time) from KCGI Reporting Station
Few Clouds Few Clouds  
Wind Chill:   Ceiling: Unl
Heat Index:   Visibility: 10mi
Dew Point: -3°   Wind: 5mph
Humidity: 65%   Direction: 340°NNW
Pressure: 30.46"   Gusts: NA
Location:  37.38°N, 89.67°W
Report Text: KCGI 272153Z 34004KT 10SM FEW040 03/M03 A3046 RMK AO2 SLP315 T00331028
Loading
Personal Weather Stations






























Interactive Weather Map New forecast layout! Learn more

10-Day Weather Forecast

Advertisements
Track Severe Weather on mobile